createdAt,value
2023-05-20T00:00:56.805Z,98724.16
2023-05-20T00:03:24.495Z,98727.53
2023-05-20T00:05:52.393Z,98724.41
2023-05-20T00:08:20.237Z,98721.75
2023-05-20T00:10:47.912Z,98727.91
2023-05-20T00:13:15.568Z,98733.69
2023-05-20T00:15:43.590Z,98739.13
2023-05-20T00:18:11.214Z,98725.47
2023-05-20T00:20:38.977Z,98733.19
2023-05-20T00:23:06.592Z,98728.13
2023-05-20T00:25:34.417Z,98736.75
2023-05-20T00:28:02.196Z,98730.03
2023-05-20T00:30:29.830Z,98741.34
2023-05-20T00:32:57.710Z,98740.41
2023-05-20T00:35:25.516Z,98731.13
2023-05-20T00:37:53.104Z,98737.16
2023-05-20T00:40:22.194Z,98738.03
2023-05-20T00:42:49.746Z,98749.88
2023-05-20T00:45:18.254Z,98751.03
2023-05-20T00:47:46.220Z,98749.41
2023-05-20T00:50:14.067Z,98751.75
2023-05-20T00:52:45.399Z,98750.97
2023-05-20T00:55:13.110Z,98749.41
2023-05-20T00:57:41.340Z,98752.91
2023-05-20T01:00:10.874Z,98744.81
2023-05-20T01:02:39.072Z,98748.03
2023-05-20T01:05:07.314Z,98750.25
2023-05-20T01:07:35.118Z,98756.81
2023-05-20T01:10:03.142Z,98757.25
2023-05-20T01:12:39.716Z,98752.50
2023-05-20T01:15:13.094Z,98757.50
2023-05-20T01:17:51.810Z,98756.72
2023-05-20T01:20:21.414Z,98757.38
2023-05-20T01:22:57.358Z,98767.44
2023-05-20T01:25:25.502Z,98760.56
2023-05-20T01:27:55.325Z,98766.09
2023-05-20T01:30:29.655Z,98766.22
2023-05-20T01:33:02.962Z,98765.59
2023-05-20T01:35:32.241Z,98753.97
2023-05-20T01:38:01.352Z,98749.78
2023-05-20T01:40:30.498Z,98759.75
2023-05-20T01:42:59.585Z,98767.16
2023-05-20T01:45:27.161Z,98761.34
2023-05-20T01:47:54.958Z,98764.22
2023-05-20T01:50:22.788Z,98767.03
2023-05-20T01:52:50.479Z,98762.22
2023-05-20T01:55:18.381Z,98753.50
2023-05-20T01:57:46.092Z,98766.81
2023-05-20T02:00:14.060Z,98764.50
2023-05-20T02:02:42.190Z,98756.84
2023-05-20T02:05:12.542Z,98773.22
2023-05-20T02:07:42.698Z,98762.81
2023-05-20T02:10:11.017Z,98770.63
2023-05-20T02:12:39.067Z,98768.44
2023-05-20T02:15:08.494Z,98771.25
2023-05-20T02:17:37.808Z,98772.53
2023-05-20T02:20:25.383Z,98769.13
2023-05-20T02:22:53.057Z,98776.59
2023-05-20T02:25:20.712Z,98773.66
2023-05-20T02:27:48.849Z,98769.41
2023-05-20T02:30:17.572Z,98770.69
2023-05-20T02:32:45.454Z,98776.63
2023-05-20T02:35:13.189Z,98779.34
2023-05-20T02:37:40.999Z,98779.50
2023-05-20T02:40:09.602Z,98773.34
2023-05-20T02:42:39.028Z,98770.75
2023-05-20T02:45:08.750Z,98777.88
2023-05-20T02:47:36.497Z,98774.09
2023-05-20T02:50:07.389Z,98774.63
2023-05-20T02:52:35.119Z,98776.72
2023-05-20T02:55:04.176Z,98769.91
2023-05-20T02:57:34.221Z,98776.78
2023-05-20T03:00:02.098Z,98789.88
2023-05-20T03:02:33.346Z,98779.28
2023-05-20T03:05:02.841Z,98776.59
2023-05-20T03:07:36.676Z,98785.81
2023-05-20T03:10:08.307Z,98770.91
2023-05-20T03:12:36.399Z,98775.59
2023-05-20T03:15:04.153Z,98780.41
2023-05-20T03:17:33.799Z,98777.22
2023-05-20T03:20:02.269Z,98790.31
2023-05-20T03:22:33.664Z,98788.38
2023-05-20T03:25:02.700Z,98787.25
2023-05-20T03:27:37.139Z,98776.00
2023-05-20T03:30:05.539Z,98785.09
2023-05-20T03:32:34.650Z,98772.88
2023-05-20T03:35:02.611Z,98776.44
2023-05-20T03:37:32.615Z,98783.19
2023-05-20T03:40:00.625Z,98782.09
2023-05-20T03:42:28.234Z,98787.19
2023-05-20T03:44:56.551Z,98778.81
2023-05-20T03:47:27.770Z,98790.81
2023-05-20T03:49:56.016Z,98795.34
2023-05-20T03:52:23.792Z,98782.78
2023-05-20T03:54:51.742Z,98785.66
2023-05-20T03:57:20.082Z,98787.34
2023-05-20T03:59:47.999Z,98782.66
2023-05-20T04:02:16.064Z,98782.22
2023-05-20T04:04:44.566Z,98773.63
2023-05-20T04:07:12.385Z,98781.63
2023-05-20T04:09:40.726Z,98776.91
2023-05-20T04:12:08.351Z,98781.78
2023-05-20T04:14:36.116Z,98780.50
2023-05-20T04:17:05.092Z,98785.88
2023-05-20T04:19:35.136Z,98784.03
2023-05-20T04:22:02.998Z,98790.72
2023-05-20T04:24:31.701Z,98785.03
2023-05-20T04:26:59.354Z,98784.13
2023-05-20T04:29:30.400Z,98781.75
2023-05-20T04:31:59.032Z,98777.50
2023-05-20T04:34:30.175Z,98783.38
2023-05-20T04:36:58.248Z,98772.63
2023-05-20T04:39:27.482Z,98776.69
2023-05-20T04:41:55.457Z,98780.91
2023-05-20T04:44:25.006Z,98774.88
2023-05-20T04:46:52.979Z,98786.88
2023-05-20T04:49:20.759Z,98781.66
2023-05-20T04:51:50.307Z,98769.25
2023-05-20T04:54:20.625Z,98769.22
2023-05-20T04:56:48.428Z,98771.25
2023-05-20T04:59:16.251Z,98770.25
2023-05-20T05:01:43.896Z,98768.72
2023-05-20T05:04:11.951Z,98762.16
2023-05-20T05:06:39.811Z,98772.56
2023-05-20T05:09:08.475Z,98762.31
2023-05-20T05:11:39.538Z,98755.53
2023-05-20T05:14:07.319Z,98760.22
2023-05-20T05:16:35.800Z,98769.06
2023-05-20T05:19:03.635Z,98764.53
2023-05-20T05:21:34.870Z,98767.38
2023-05-20T05:24:02.570Z,98758.84
2023-05-20T05:26:30.911Z,98765.00
2023-05-20T05:28:58.753Z,98748.13
2023-05-20T05:31:26.553Z,98755.78
2023-05-20T05:33:54.616Z,98752.97
2023-05-20T05:36:24.490Z,98745.16
2023-05-20T05:38:52.579Z,98758.53
2023-05-20T05:41:20.521Z,98762.75
2023-05-20T05:43:48.318Z,98756.47
2023-05-20T05:46:16.160Z,98745.47
2023-05-20T05:48:49.098Z,98748.22
2023-05-20T05:51:18.294Z,98758.72
2023-05-20T05:53:47.640Z,98749.31
2023-05-20T05:56:15.363Z,98750.88
2023-05-20T05:58:43.367Z,98755.72
2023-05-20T06:01:11.936Z,98744.81
2023-05-20T06:03:39.655Z,98741.44
2023-05-20T06:06:07.457Z,98742.72
2023-05-20T06:08:35.953Z,98740.47
2023-05-20T06:11:03.710Z,98737.72
2023-05-20T06:13:31.604Z,98725.44
2023-05-20T06:15:59.292Z,98731.84
2023-05-20T06:18:27.327Z,98731.44
2023-05-20T06:20:58.837Z,98733.44
2023-05-20T06:23:27.328Z,98730.13
2023-05-20T06:26:06.393Z,98721.81
2023-05-20T06:28:34.949Z,98727.00
2023-05-20T06:31:03.485Z,98711.06
2023-05-20T06:33:34.325Z,98735.78
2023-05-20T06:36:07.009Z,98728.72
2023-05-20T06:38:34.643Z,98717.56
2023-05-20T06:41:02.705Z,98714.47
2023-05-20T06:43:31.350Z,98710.09
2023-05-20T06:46:31.312Z,98711.66
2023-05-20T06:49:06.286Z,98739.16
2023-05-20T06:51:33.931Z,98705.09
2023-05-20T06:54:02.176Z,98714.38
2023-05-20T06:56:31.667Z,98719.34
2023-05-20T06:59:00.032Z,98703.38
2023-05-20T07:01:28.438Z,98716.28
2023-05-20T07:03:57.479Z,98723.47
2023-05-20T07:06:25.725Z,98721.88
2023-05-20T07:08:54.410Z,98701.41
2023-05-20T07:11:22.999Z,98724.91
2023-05-20T07:13:50.655Z,98711.81
2023-05-20T07:16:19.245Z,98709.63
2023-05-20T07:18:53.450Z,98721.56
2023-05-20T07:21:21.596Z,98683.28
2023-05-20T07:24:12.268Z,98702.38
2023-05-20T07:26:40.217Z,98697.16
2023-05-20T07:29:08.218Z,98704.91
2023-05-20T07:31:37.717Z,98687.97
2023-05-20T07:34:05.449Z,98695.06
2023-05-20T07:36:33.109Z,98693.84
2023-05-20T07:39:08.407Z,98695.25
2023-05-20T07:41:40.555Z,98682.78
2023-05-20T07:44:11.619Z,98679.19
2023-05-20T07:46:42.842Z,98705.88
2023-05-20T07:49:12.032Z,98700.59
2023-05-20T07:51:40.547Z,98674.06
2023-05-20T07:54:08.731Z,98692.84
2023-05-20T07:56:37.849Z,98691.13
2023-05-20T07:59:07.121Z,98682.38
2023-05-20T08:01:42.536Z,98688.06
2023-05-20T08:04:11.912Z,98665.66
2023-05-20T08:06:40.119Z,98686.56
2023-05-20T08:09:12.026Z,98664.13
2023-05-20T08:11:47.326Z,98676.03
2023-05-20T08:14:15.596Z,98671.53
2023-05-20T08:16:45.351Z,98665.31
2023-05-20T08:19:13.085Z,98671.34
2023-05-20T08:21:40.715Z,98652.94
2023-05-20T08:24:08.333Z,98664.59
2023-05-20T08:26:37.388Z,98667.25
2023-05-20T08:29:06.466Z,98683.78
2023-05-20T08:31:34.673Z,98676.00
2023-05-20T08:34:03.290Z,98658.97
2023-05-20T08:36:31.047Z,98664.88
2023-05-20T08:38:58.629Z,98661.00
2023-05-20T08:41:26.708Z,98652.94
2023-05-20T08:43:55.365Z,98663.41
2023-05-20T08:46:24.010Z,98655.53
2023-05-20T08:48:52.056Z,98652.84
2023-05-20T08:51:23.746Z,98669.94
2023-05-20T08:53:52.214Z,98674.84
2023-05-20T08:56:20.316Z,98655.88
2023-05-20T08:58:48.250Z,98653.78
2023-05-20T09:01:16.008Z,98652.22
2023-05-20T09:03:43.779Z,98648.97
2023-05-20T09:06:11.442Z,98651.66
2023-05-20T09:08:39.837Z,98676.59
2023-05-20T09:11:10.569Z,98677.06
2023-05-20T09:13:38.222Z,98657.47
2023-05-20T09:16:06.490Z,98660.09
2023-05-20T09:18:34.133Z,98646.06
2023-05-20T09:21:09.228Z,98649.78
2023-05-20T09:23:39.944Z,98650.69
2023-05-20T09:26:07.973Z,98649.22
2023-05-20T09:28:38.577Z,98656.28
2023-05-20T09:31:07.025Z,98639.59
2023-05-20T09:33:36.022Z,98644.88
2023-05-20T09:36:10.932Z,98659.38
2023-05-20T09:38:40.464Z,98642.56
2023-05-20T09:41:10.866Z,98644.09
2023-05-20T09:43:40.738Z,98642.84
2023-05-20T09:46:09.146Z,98628.41
2023-05-20T09:48:37.942Z,98633.97
2023-05-20T09:51:07.234Z,98641.88
2023-05-20T09:53:35.034Z,98631.28
2023-05-20T09:56:02.689Z,98641.72
2023-05-20T09:58:30.993Z,98653.75
2023-05-20T10:00:58.712Z,98633.56
2023-05-20T10:03:28.713Z,98643.66
2023-05-20T10:06:02.334Z,98632.28
2023-05-20T10:08:29.667Z,98650.72
2023-05-20T10:11:07.051Z,98646.66
2023-05-20T10:14:12.988Z,98642.78
2023-05-20T10:16:58.931Z,98641.47
2023-05-20T10:19:36.503Z,98629.56
2023-05-20T10:22:12.259Z,98631.53
2023-05-20T10:24:41.755Z,98630.50
2023-05-20T10:27:17.422Z,98625.50
2023-05-20T10:29:53.450Z,98623.53
2023-05-20T10:32:34.578Z,98633.59
2023-05-20T10:35:09.467Z,98623.97
2023-05-20T10:37:46.271Z,98623.44
2023-05-20T10:40:16.140Z,98615.16
2023-05-20T10:42:44.021Z,98627.41
2023-05-20T10:45:12.726Z,98631.44
2023-05-20T10:47:58.331Z,98635.78
2023-05-20T10:50:41.004Z,98624.13
2023-05-20T10:53:22.003Z,98619.94
2023-05-20T10:56:00.345Z,98615.06
2023-05-20T10:58:27.955Z,98619.91
2023-05-20T11:00:56.506Z,98618.94
2023-05-20T11:03:25.722Z,98618.47
2023-05-20T11:05:53.440Z,98609.44
2023-05-20T11:08:29.092Z,98592.28
2023-05-20T11:10:58.288Z,98613.31
2023-05-20T11:13:27.267Z,98608.78
2023-05-20T11:15:55.810Z,98613.22
2023-05-20T11:18:23.547Z,98606.03
2023-05-20T11:20:51.468Z,98601.72
2023-05-20T11:23:19.494Z,98606.81
2023-05-20T11:25:47.098Z,98615.00
2023-05-20T11:28:14.964Z,98605.06
2023-05-20T11:30:43.710Z,98606.16
2023-05-20T11:33:16.156Z,98610.13
2023-05-20T11:35:47.970Z,98594.19
2023-05-20T11:38:16.372Z,98596.97
2023-05-20T11:40:50.954Z,98601.97
2023-05-20T11:43:20.426Z,98613.81
2023-05-20T11:45:54.327Z,98608.06
2023-05-20T11:48:22.279Z,98592.72
2023-05-20T11:50:49.916Z,98596.25
2023-05-20T11:53:19.168Z,98596.91
2023-05-20T11:55:54.598Z,98601.97
2023-05-20T11:58:25.784Z,98597.22
2023-05-20T12:00:59.555Z,98593.47
2023-05-20T12:03:33.486Z,98586.06
2023-05-20T12:06:04.892Z,98600.31
2023-05-20T12:08:33.029Z,98601.09
2023-05-20T12:11:00.736Z,98599.69
2023-05-20T12:13:28.498Z,98602.19
2023-05-20T12:15:56.263Z,98596.75
2023-05-20T12:18:24.113Z,98598.19
2023-05-20T12:20:51.877Z,98602.06
2023-05-20T12:23:19.580Z,98597.97
2023-05-20T12:25:50.168Z,98601.41
2023-05-20T12:28:18.086Z,98611.09
2023-05-20T12:30:45.677Z,98601.59
2023-05-20T12:33:13.257Z,98595.41
2023-05-20T12:35:42.601Z,98603.03
2023-05-20T12:38:10.850Z,98598.81
2023-05-20T12:40:38.763Z,98594.19
2023-05-20T12:43:07.018Z,98595.69
2023-05-20T12:45:34.752Z,98594.69
2023-05-20T12:48:02.621Z,98608.94
2023-05-20T12:50:30.418Z,98602.94
2023-05-20T12:52:58.070Z,98603.47
2023-05-20T12:55:25.824Z,98601.84
2023-05-20T12:57:56.753Z,98605.63
2023-05-20T13:00:24.517Z,98594.78
2023-05-20T13:02:53.199Z,98596.47
2023-05-20T13:05:20.979Z,98601.44
2023-05-20T13:07:49.420Z,98604.44
2023-05-20T13:10:18.281Z,98602.22
2023-05-20T13:12:47.335Z,98602.69
2023-05-20T13:15:15.250Z,98596.94
2023-05-20T13:17:43.293Z,98603.84
2023-05-20T13:20:12.246Z,98595.16
2023-05-20T13:22:39.894Z,98587.44
2023-05-20T13:25:08.426Z,98586.72
2023-05-20T13:27:36.180Z,98587.59
2023-05-20T13:30:04.579Z,98579.44
2023-05-20T13:32:33.254Z,98587.44
2023-05-20T13:35:01.254Z,98584.16
2023-05-20T13:37:30.381Z,98575.69
2023-05-20T13:39:57.937Z,98580.25
2023-05-20T13:42:25.776Z,98576.97
2023-05-20T13:44:53.383Z,98589.78
2023-05-20T13:47:21.275Z,98581.91
2023-05-20T13:49:49.325Z,98584.53
2023-05-20T13:52:16.989Z,98589.66
2023-05-20T13:54:47.045Z,98592.09
2023-05-20T13:57:15.446Z,98596.41
2023-05-20T13:59:42.953Z,98595.63
2023-05-20T14:02:11.301Z,98596.34
2023-05-20T14:04:40.320Z,98601.84
2023-05-20T14:07:09.891Z,98601.84
2023-05-20T14:09:37.776Z,98607.88
2023-05-20T14:12:06.580Z,98600.91
2023-05-20T14:14:34.304Z,98602.56
2023-05-20T14:17:01.833Z,98595.25
2023-05-20T14:19:30.386Z,98599.63
2023-05-20T14:22:01.422Z,98602.16
2023-05-20T14:24:29.811Z,98608.97
2023-05-20T14:26:57.466Z,98610.19
2023-05-20T14:29:25.371Z,98607.53
2023-05-20T14:31:53.034Z,98597.28
2023-05-20T14:34:21.634Z,98616.75
2023-05-20T14:36:49.334Z,98606.16
2023-05-20T14:39:17.459Z,98609.09
2023-05-20T14:41:45.114Z,98603.97
2023-05-20T14:44:12.732Z,98602.47
2023-05-20T14:46:40.564Z,98602.97
2023-05-20T14:49:08.213Z,98606.25
2023-05-20T14:51:35.782Z,98601.59
2023-05-20T14:54:03.387Z,98608.75
2023-05-20T14:56:31.620Z,98603.34
2023-05-20T14:58:59.311Z,98609.75
2023-05-20T15:01:26.958Z,98612.38
2023-05-20T15:03:54.626Z,98613.34
2023-05-20T15:06:22.216Z,98618.41
2023-05-20T15:08:49.849Z,98613.69
2023-05-20T15:11:17.416Z,98617.06
2023-05-20T15:13:46.772Z,98620.66
2023-05-20T15:16:14.499Z,98623.84
2023-05-20T15:18:42.332Z,98618.50
2023-05-20T15:21:10.113Z,98622.44
2023-05-20T15:23:37.731Z,98621.09
2023-05-20T15:26:05.439Z,98623.91
2023-05-20T15:28:33.133Z,98623.16
2023-05-20T15:31:00.918Z,98618.47
2023-05-20T15:33:28.620Z,98622.19
2023-05-20T15:35:56.726Z,98623.13
2023-05-20T15:38:24.462Z,98620.88
2023-05-20T15:40:51.997Z,98625.69
2023-05-20T15:43:20.251Z,98633.09
2023-05-20T15:45:48.654Z,98632.50
2023-05-20T15:48:16.658Z,98619.91
2023-05-20T15:50:44.454Z,98620.44
2023-05-20T15:53:12.100Z,98628.44
2023-05-20T15:55:39.800Z,98612.72
2023-05-20T15:58:07.447Z,98628.28
2023-05-20T16:00:35.519Z,98638.97
2023-05-20T16:03:03.676Z,98645.66
2023-05-20T16:05:31.569Z,98638.69
2023-05-20T16:07:59.364Z,98632.09
2023-05-20T16:10:33.041Z,98635.69
2023-05-20T16:13:01.579Z,98638.88
2023-05-20T16:15:35.864Z,98636.53
2023-05-20T16:18:03.807Z,98638.16
2023-05-20T16:20:31.962Z,98634.78
2023-05-20T16:22:59.610Z,98646.28
2023-05-20T16:25:27.239Z,98641.63
2023-05-20T16:27:54.913Z,98645.28
2023-05-20T16:30:22.621Z,98647.41
2023-05-20T16:32:50.264Z,98648.31
2023-05-20T16:35:17.868Z,98646.91
2023-05-20T16:37:45.735Z,98647.31
2023-05-20T16:40:13.653Z,98656.41
2023-05-20T16:42:42.520Z,98650.25
2023-05-20T16:45:10.714Z,98641.72
2023-05-20T16:47:38.663Z,98646.50
2023-05-20T16:50:06.957Z,98650.44
2023-05-20T16:52:35.272Z,98641.84
2023-05-20T16:55:04.865Z,98647.78
2023-05-20T16:57:33.649Z,98641.97
2023-05-20T17:00:01.459Z,98642.81
2023-05-20T17:02:33.043Z,98642.16
2023-05-20T17:05:00.692Z,98634.03
2023-05-20T17:07:28.254Z,98637.63
2023-05-20T17:09:56.164Z,98644.72
2023-05-20T17:12:23.810Z,98640.81
2023-05-20T17:14:51.541Z,98644.81
2023-05-20T17:17:19.151Z,98640.59
2023-05-20T17:19:46.886Z,98646.81
2023-05-20T17:22:14.558Z,98643.78
2023-05-20T17:24:42.199Z,98645.50
2023-05-20T17:27:10.104Z,98649.19
2023-05-20T17:29:37.745Z,98646.13
2023-05-20T17:32:05.931Z,98652.50
2023-05-20T17:34:33.822Z,98644.28
2023-05-20T17:37:01.514Z,98640.09
2023-05-20T17:39:29.290Z,98646.78
2023-05-20T17:41:56.936Z,98646.84
2023-05-20T17:44:24.474Z,98641.09
2023-05-20T17:46:52.165Z,98642.31
2023-05-20T17:49:19.862Z,98645.47
2023-05-20T17:51:47.414Z,98645.50
2023-05-20T17:54:15.398Z,98651.44
2023-05-20T17:56:44.840Z,98651.91
2023-05-20T17:59:12.357Z,98649.25
2023-05-20T18:01:40.060Z,98650.88
2023-05-20T18:04:07.770Z,98646.66
2023-05-20T18:06:36.527Z,98644.72
2023-05-20T18:09:05.348Z,98651.44
2023-05-20T18:11:35.464Z,98653.03
2023-05-20T18:14:03.272Z,98648.41
2023-05-20T18:16:31.290Z,98646.13
2023-05-20T18:18:59.004Z,98648.13
2023-05-20T18:21:26.788Z,98654.34
2023-05-20T18:23:54.740Z,98645.03
2023-05-20T18:26:22.991Z,98654.00
2023-05-20T18:28:50.565Z,98658.75
2023-05-20T18:31:18.355Z,98662.31
2023-05-20T18:33:46.292Z,98650.59
2023-05-20T18:36:13.891Z,98656.88
2023-05-20T18:38:42.008Z,98655.72
2023-05-20T18:41:09.989Z,98659.28
2023-05-20T18:43:37.745Z,98653.03
2023-05-20T18:46:05.736Z,98654.22
2023-05-20T18:48:33.352Z,98665.59
2023-05-20T18:51:01.183Z,98658.59
2023-05-20T18:53:28.702Z,98661.34
2023-05-20T18:55:57.467Z,98661.75
2023-05-20T18:58:24.993Z,98655.13
2023-05-20T19:00:52.742Z,98666.53
2023-05-20T19:03:20.424Z,98659.50
2023-05-20T19:05:48.055Z,98656.41
2023-05-20T19:08:16.049Z,98654.13
2023-05-20T19:10:43.857Z,98644.38
2023-05-20T19:13:11.556Z,98660.41
2023-05-20T19:15:39.192Z,98654.94
2023-05-20T19:18:06.918Z,98656.16
2023-05-20T19:20:35.124Z,98647.97
2023-05-20T19:23:03.236Z,98658.94
2023-05-20T19:25:30.840Z,98652.69
2023-05-20T19:27:58.445Z,98657.00
2023-05-20T19:30:26.162Z,98654.28
2023-05-20T19:32:53.836Z,98653.13
2023-05-20T19:35:21.669Z,98650.03
2023-05-20T19:37:49.275Z,98644.56
2023-05-20T19:40:16.895Z,98651.19
2023-05-20T19:42:44.673Z,98646.13
2023-05-20T19:45:12.452Z,98645.75
2023-05-20T19:47:40.228Z,98645.38
2023-05-20T19:50:08.800Z,98656.31
2023-05-20T19:52:36.586Z,98651.63
2023-05-20T19:55:04.496Z,98651.63
2023-05-20T19:57:33.370Z,98657.09
2023-05-20T20:00:00.995Z,98654.81
2023-05-20T20:02:28.827Z,98645.84
2023-05-20T20:04:56.456Z,98657.94
2023-05-20T20:07:24.152Z,98650.53
2023-05-20T20:09:55.489Z,98648.19
2023-05-20T20:12:23.909Z,98647.03
2023-05-20T20:14:52.506Z,98645.09
2023-05-20T20:17:22.575Z,98649.78
2023-05-20T20:19:53.520Z,98648.97
2023-05-20T20:22:21.553Z,98654.06
2023-05-20T20:24:50.295Z,98652.13
2023-05-20T20:27:19.523Z,98657.59
2023-05-20T20:29:47.218Z,98656.06
2023-05-20T20:32:14.983Z,98656.47
2023-05-20T20:34:43.367Z,98665.84
2023-05-20T20:37:15.200Z,98659.59
2023-05-20T20:39:45.595Z,98639.72
2023-05-20T20:42:13.357Z,98662.34
2023-05-20T20:44:43.118Z,98646.31
2023-05-20T20:47:10.768Z,98661.94
2023-05-20T20:49:38.283Z,98658.44
2023-05-20T20:52:06.397Z,98662.34
2023-05-20T20:54:34.492Z,98664.31
2023-05-20T20:57:02.984Z,98642.09
2023-05-20T20:59:30.580Z,98665.91
2023-05-20T21:01:58.257Z,98671.75
2023-05-20T21:04:28.079Z,98664.34
2023-05-20T21:06:55.707Z,98672.56
2023-05-20T21:09:23.786Z,98670.59
2023-05-20T21:11:51.331Z,98674.50
2023-05-20T21:14:18.906Z,98669.44
2023-05-20T21:16:46.557Z,98677.25
2023-05-20T21:19:14.436Z,98674.50
2023-05-20T21:21:42.145Z,98675.28
2023-05-20T21:24:09.834Z,98678.78
2023-05-20T21:26:37.289Z,98674.88
2023-05-20T21:29:06.269Z,98679.97
2023-05-20T21:31:33.934Z,98677.63
2023-05-20T21:34:01.582Z,98672.16
2023-05-20T21:36:29.307Z,98678.78
2023-05-20T21:38:57.115Z,98679.56
2023-05-20T21:41:24.833Z,98675.28
2023-05-20T21:43:52.379Z,98668.63
2023-05-20T21:46:19.954Z,98672.56
2023-05-20T21:48:47.567Z,98679.56
2023-05-20T21:51:15.232Z,98665.91
2023-05-20T21:53:42.858Z,98675.25
2023-05-20T21:56:10.495Z,98678.41
2023-05-20T21:58:41.396Z,98674.50
2023-05-20T22:01:10.391Z,98683.84
2023-05-20T22:03:40.152Z,98684.25
2023-05-20T22:06:08.064Z,98685.78
2023-05-20T22:08:35.643Z,98683.06
2023-05-20T22:11:07.786Z,98690.44
2023-05-20T22:13:36.477Z,98690.44
2023-05-20T22:16:05.348Z,98688.88
2023-05-20T22:18:33.107Z,98691.59
2023-05-20T22:21:01.421Z,98694.31
2023-05-20T22:23:29.254Z,98695.47
2023-05-20T22:25:57.360Z,98687.25
2023-05-20T22:28:26.516Z,98692.72
2023-05-20T22:30:54.951Z,98687.63
2023-05-20T22:33:23.187Z,98682.94
2023-05-20T22:35:51.738Z,98689.19
2023-05-20T22:38:19.578Z,98693.00
2023-05-20T22:40:47.491Z,98694.19
2023-05-20T22:43:16.776Z,98680.94
2023-05-20T22:45:44.574Z,98689.88
2023-05-20T22:48:12.755Z,98698.06
2023-05-20T22:50:40.485Z,98692.19
2023-05-20T22:53:08.069Z,98696.09
2023-05-20T22:55:38.996Z,98693.34
2023-05-20T22:58:08.251Z,98691.75
2023-05-20T23:00:36.118Z,98680.84
2023-05-20T23:03:03.746Z,98690.94
2023-05-20T23:05:32.095Z,98689.75
2023-05-20T23:08:00.110Z,98690.56
2023-05-20T23:10:27.772Z,98690.91
2023-05-20T23:12:55.362Z,98695.19
2023-05-20T23:15:25.549Z,98695.94
2023-05-20T23:17:53.531Z,98696.00
2023-05-20T23:20:22.558Z,98690.84
2023-05-20T23:22:50.330Z,98698.25
2023-05-20T23:25:17.947Z,98714.22
2023-05-20T23:27:45.868Z,98699.00
2023-05-20T23:30:13.565Z,98691.94
2023-05-20T23:32:41.689Z,98699.75
2023-05-20T23:35:11.938Z,98704.78
2023-05-20T23:37:41.257Z,98694.66
2023-05-20T23:40:12.505Z,98709.44
2023-05-20T23:42:40.685Z,98699.25
2023-05-20T23:45:08.828Z,98693.41
2023-05-20T23:47:38.079Z,98704.69
2023-05-20T23:50:06.185Z,98704.69
2023-05-20T23:52:34.519Z,98697.63
2023-05-20T23:55:02.142Z,98698.44
2023-05-20T23:57:32.558Z,98701.13
